Cuero, Texas
Current Conditions -  °F | °C
As of 7:51 PM on Wednesday 17 Dec 2014 (Local Time) from KVCT Reporting Station
Few Clouds Few Clouds  
Wind Chill: 64°   Ceiling: Unl
Heat Index: 64°   Visibility: 10mi
Dew Point: 62°   Wind: 6mph
Humidity: 93%   Direction: 90°E
Pressure: 30.06"   Gusts: NA
Location:  29.09°N, 97.29°W
Report Text: KVCT 180151Z 09005KT 10SM FEW022 FEW048 18/17 A3006 RMK AO2 SLP179 T01780167
Loading
Personal Weather Stations






























Interactive Weather Map New forecast layout! Learn more

10-Day Weather Forecast

Advertisements
Track Severe Weather on mobile